Carey, Ohio
Current Conditions -  °F | °C
As of 4:53 AM on Sunday 26 Oct 2014 (Local Time) from KFDY Reporting Station
Clear Clear  
Wind Chill: 36°   Ceiling: Unl
Heat Index: 41°   Visibility: 10mi
Dew Point: 32°   Wind: 7mph
Humidity: 70%   Direction: 290°WNW
Pressure: 29.9"   Gusts: NA
Location:  40.95°N, 83.38°W
Report Text: KFDY 260853Z AUTO 29006KT 10SM CLR 05/00 A2990 RMK AO2 SLP122 T00500000 51009
Loading
Personal Weather Stations






























Interactive Weather Map
Tropical Storm Tracking
New forecast layout! Learn more

10-Day Weather Forecast

Advertisements
Track Severe Weather on mobile